Time;durP1;ratioP1;P1;durP2;ratioP2;P2;SDS_P1;SDS_P2;PMS_P1;PMS_P2;Temp;Humidity;BMP_temperature;BMP_pressure;BME280_temperature;BME280_humidity;BME280_pressure;Samples;Min_cycle;Max_cycle;Signal;HPM_P1;HPM_P2
2021/12/25 00:00:29;;;;;;;;;1.25;0.75;;;;;14.28;52.22;97138.19;4848832;28;102858;-84
2021/12/25 00:02:56;;;;;;;;;1.00;1.00;;;;;14.26;52.86;97142.28;4870102;28;102582;-84
2021/12/25 00:05:24;;;;;;;;;2.00;1.00;;;;;14.24;52.86;97138.97;4870260;28;104605;-84
2021/12/25 00:07:51;;;;;;;;;0.00;0.00;;;;;14.24;52.65;97136.25;4876620;28;102960;-83
2021/12/25 00:10:18;;;;;;;;;2.00;1.00;;;;;14.27;52.04;97133.03;4866460;28;102221;-82
2021/12/25 00:12:45;;;;;;;;;2.00;1.00;;;;;14.36;52.75;97149.72;4856519;28;104276;-81
2021/12/25 00:15:12;;;;;;;;;1.50;1.50;;;;;14.49;54.62;97154.72;4866487;28;103945;-82
2021/12/25 00:17:40;;;;;;;;;1.50;1.50;;;;;14.62;54.93;97157.81;4879990;28;102716;-81
2021/12/25 00:20:07;;;;;;;;;1.50;1.00;;;;;14.73;55.15;97162.22;4865105;28;102598;-81
2021/12/25 00:22:34;;;;;;;;;2.00;2.00;;;;;14.82;55.76;97170.69;4875511;28;102455;-82
2021/12/25 00:25:01;;;;;;;;;1.00;1.00;;;;;14.89;55.45;97154.16;4872061;28;111122;-81
2021/12/25 00:32:50;;;;;;;;;2.75;2.25;;;;;15.13;55.54;97171.69;4843817;28;102917;-81
2021/12/25 00:35:20;;;;;;;;;3.25;3.00;;;;;15.21;54.68;97176.63;4861609;28;107972;-82
2021/12/25 00:37:47;;;;;;;;;2.00;2.00;;;;;15.29;54.49;97180.75;4870399;28;102507;-81
2021/12/25 00:40:14;;;;;;;;;3.00;3.00;;;;;15.34;54.96;97184.31;4874209;28;103693;-82
2021/12/25 00:42:41;;;;;;;;;4.00;3.00;;;;;15.41;54.38;97189.50;4869701;28;102989;-82
2021/12/25 00:45:08;;;;;;;;;2.00;2.00;;;;;15.45;54.60;97199.59;4865380;28;104047;-81
2021/12/25 00:47:36;;;;;;;;;3.25;3.00;;;;;15.51;54.22;97205.94;4859868;28;106054;-80
2021/12/25 00:50:04;;;;;;;;;2.00;2.00;;;;;15.57;53.89;97213.06;4864254;28;102730;-82
2021/12/25 00:52:31;;;;;;;;;2.75;2.00;;;;;15.62;53.85;97218.53;4854696;28;103752;-82
2021/12/25 00:54:58;;;;;;;;;2.75;2.75;;;;;15.66;53.54;97230.53;4870590;28;104209;-82
2021/12/25 00:57:25;;;;;;;;;5.00;4.00;;;;;15.71;53.65;97241.44;4876173;28;105700;-82
2021/12/25 00:59:52;;;;;;;;;3.25;3.00;;;;;15.75;53.61;97248.00;4864210;28;102642;-82
2021/12/25 01:02:19;;;;;;;;;3.00;2.00;;;;;15.78;53.26;97247.47;4860840;28;102628;-82
2021/12/25 01:04:47;;;;;;;;;3.00;3.00;;;;;15.83;53.58;97252.09;4860506;28;104020;-82
2021/12/25 01:07:14;;;;;;;;;3.50;3.00;;;;;15.88;53.11;97257.56;4856119;28;102853;-82
2021/12/25 01:09:46;;;;;;;;;2.25;2.00;;;;;15.92;53.49;97253.22;4868374;28;102323;-81
2021/12/25 01:12:13;;;;;;;;;3.00;2.25;;;;;15.95;53.00;97248.06;4873804;28;103084;-82
2021/12/25 01:14:49;;;;;;;;;0.75;0.00;;;;;15.98;52.76;97247.53;4871828;28;104367;-82
2021/12/25 01:20:21;;;;;;;;;3.00;3.00;;;;;16.05;52.36;97272.63;4866899;28;104054;-82
2021/12/25 01:48:51;;;;;;;;;2.75;2.00;;;;;16.38;51.00;97270.53;4865471;28;102548;-82
2021/12/25 01:51:18;;;;;;;;;1.75;1.25;;;;;16.40;51.86;97284.69;4865990;28;102635;-82
2021/12/25 01:53:45;;;;;;;;;2.25;1.75;;;;;16.41;51.75;97268.06;4865587;28;102981;-82
2021/12/25 01:56:12;;;;;;;;;3.00;2.50;;;;;16.41;50.56;97264.50;4869883;28;104097;-81
2021/12/25 01:58:39;;;;;;;;;1.00;1.00;;;;;16.45;51.52;97265.59;4868787;28;103412;-81
2021/12/25 02:01:07;;;;;;;;;1.50;1.50;;;;;16.45;51.77;97276.53;4856091;28;102754;-81
2021/12/25 02:03:36;;;;;;;;;2.75;2.00;;;;;16.49;50.80;97281.16;4855528;28;102705;-82
2021/12/25 02:06:04;;;;;;;;;1.50;1.00;;;;;16.52;51.04;97282.56;4856943;28;104091;-82
2021/12/25 02:08:32;;;;;;;;;2.50;2.25;;;;;16.52;51.45;97294.25;4826537;28;102704;-81
2021/12/25 02:10:59;;;;;;;;;2.50;2.00;;;;;16.52;50.56;97294.25;4843368;28;103293;-82
2021/12/25 02:13:27;;;;;;;;;2.00;1.50;;;;;16.56;51.12;97289.09;4869916;28;102419;-82
2021/12/25 02:15:55;;;;;;;;;2.25;2.00;;;;;16.58;50.43;97297.03;4864754;28;104095;-81
2021/12/25 02:18:55;;;;;;;;;2.50;2.25;;;;;16.59;50.83;97294.03;4867130;28;104099;-81
2021/12/25 02:21:22;;;;;;;;;1.50;1.50;;;;;16.62;51.02;97301.69;4822982;28;102235;-82
2021/12/25 02:23:50;;;;;;;;;2.50;2.00;;;;;16.63;50.41;97311.50;4867805;28;102651;-82
2021/12/25 02:26:18;;;;;;;;;2.00;2.00;;;;;16.66;50.67;97312.91;4868192;28;104311;-82
2021/12/25 02:28:45;;;;;;;;;1.00;1.00;;;;;16.66;51.25;97310.97;4867061;28;102581;-81
2021/12/25 02:31:13;;;;;;;;;2.00;2.00;;;;;16.67;51.24;97309.06;4871053;28;102694;-80
2021/12/25 02:33:40;;;;;;;;;1.00;1.00;;;;;16.68;49.94;97322.44;4863836;28;102470;-82
2021/12/25 02:36:08;;;;;;;;;2.00;2.00;;;;;16.69;50.65;97326.81;4830701;28;108989;-82
2021/12/25 02:38:35;;;;;;;;;4.00;2.50;;;;;16.70;50.59;97328.47;4865371;28;102485;-82
2021/12/25 02:41:03;;;;;;;;;1.00;1.00;;;;;16.71;50.57;97351.09;4862632;28;102700;-82
2021/12/25 02:43:30;;;;;;;;;2.00;1.75;;;;;16.72;50.33;97342.63;4872727;28;102539;-82
2021/12/25 02:46:02;;;;;;;;;2.75;2.00;;;;;16.73;51.03;97355.19;4864293;28;104704;-82
2021/12/25 02:48:30;;;;;;;;;2.00;2.00;;;;;16.73;50.27;97351.66;4856704;28;102678;-81
2021/12/25 02:50:57;;;;;;;;;1.00;1.00;;;;;16.73;50.22;97349.75;4870954;28;102606;-82
2021/12/25 02:53:24;;;;;;;;;3.00;2.50;;;;;16.74;50.61;97362.31;4875346;28;102258;-81
2021/12/25 02:55:51;;;;;;;;;1.00;0.25;;;;;16.77;50.03;97371.84;4833990;28;104102;-82
2021/12/25 02:58:21;;;;;;;;;2.00;1.75;;;;;16.78;50.77;97370.78;4871000;28;102405;-81
2021/12/25 03:00:51;;;;;;;;;1.50;1.50;;;;;16.79;50.67;97381.44;4871781;28;102533;-82
2021/12/25 03:03:18;;;;;;;;;3.75;2.00;;;;;16.80;50.49;97374.84;4866069;28;102467;-81
2021/12/25 03:05:46;;;;;;;;;2.00;2.00;;;;;16.81;50.49;97379.22;4873837;28;104401;-81
2021/12/25 03:08:13;;;;;;;;;1.75;1.00;;;;;16.80;49.66;97383.03;4841233;28;102760;-82
2021/12/25 03:10:40;;;;;;;;;1.75;1.75;;;;;16.81;50.56;97390.16;4861750;28;102269;-82
2021/12/25 03:15:46;;;;;;;;;2.25;2.00;;;;;16.81;49.74;97411.16;4873677;28;104065;-82
2021/12/25 03:18:14;;;;;;;;;2.50;1.00;;;;;16.81;50.49;97412.00;4865978;28;102645;-82
2021/12/25 03:20:44;;;;;;;;;2.00;2.00;;;;;16.81;50.01;97425.66;4873825;28;102621;-82
2021/12/25 03:23:16;;;;;;;;;2.00;1.50;;;;;16.81;49.84;97422.09;4857751;28;103052;-82
2021/12/25 03:25:43;;;;;;;;;1.00;1.00;;;;;16.81;49.60;97417.44;4864343;28;108771;-82
2021/12/25 03:28:11;;;;;;;;;2.00;2.00;;;;;16.80;49.43;97418.53;4870405;28;102701;-82
2021/12/25 03:30:39;;;;;;;;;1.75;1.25;;;;;16.80;49.99;97432.19;4879269;28;102715;-82
2021/12/25 03:33:08;;;;;;;;;1.75;1.00;;;;;16.81;50.24;97422.91;4864717;28;102291;-82
2021/12/25 03:35:35;;;;;;;;;3.00;2.00;;;;;16.82;49.44;97435.47;4864034;28;103846;-82
2021/12/25 03:38:03;;;;;;;;;1.00;1.00;;;;;16.81;49.34;97428.38;4869181;28;102379;-82
2021/12/25 03:40:30;;;;;;;;;1.00;1.00;;;;;16.83;49.35;97426.22;4867843;28;104856;-81
2021/12/25 03:43:00;;;;;;;;;1.50;1.00;;;;;16.83;49.75;97434.41;4863605;28;103634;-82
2021/12/25 03:45:30;;;;;;;;;2.00;2.00;;;;;16.84;49.71;97444.22;4854706;28;104130;-81
2021/12/25 03:48:12;;;;;;;;;1.00;1.00;;;;;16.85;49.98;97467.69;4869686;28;102455;-82
2021/12/25 03:58:56;;;;;;;;;2.00;1.00;;;;;16.81;49.79;97482.16;4857836;28;105986;-82
2021/12/25 04:04:20;;;;;;;;;1.00;1.00;;;;;16.79;49.81;97496.09;4853546;28;102979;-81
2021/12/25 04:06:58;;;;;;;;;1.00;1.00;;;;;16.78;49.88;97502.63;4863039;28;108924;-81
2021/12/25 04:09:28;;;;;;;;;2.00;1.00;;;;;16.81;49.76;97501.25;4849897;28;102876;-82
2021/12/25 04:11:57;;;;;;;;;1.00;1.00;;;;;16.81;49.81;97515.75;4860213;28;102502;-82
2021/12/25 04:14:24;;;;;;;;;2.00;1.75;;;;;16.79;49.89;97523.38;4870397;28;102495;-82
2021/12/25 04:16:51;;;;;;;;;0.25;0.00;;;;;16.81;49.52;97523.09;4869100;28;104077;-82
2021/12/25 04:19:18;;;;;;;;;1.00;1.00;;;;;16.81;49.61;97526.66;4877250;28;102832;-81
2021/12/25 04:22:02;;;;;;;;;1.00;1.00;;;;;16.79;49.65;97520.66;4871379;28;103363;-82
2021/12/25 04:24:32;;;;;;;;;1.00;1.00;;;;;16.78;49.20;97524.47;4867123;28;103372;-82
2021/12/25 04:26:59;;;;;;;;;0.75;0.75;;;;;16.77;50.07;97533.75;4871701;28;104167;-81
2021/12/25 04:47:47;;;;;;;;;1.00;1.00;;;;;16.77;49.96;97562.94;4863896;28;103401;-81
2021/12/25 05:04:59;;;;;;;;;0.75;0.75;;;;;16.73;48.79;97611.81;4869941;28;102370;-81
2021/12/25 05:07:26;;;;;;;;;1.25;0.25;;;;;16.73;49.70;97608.25;4870626;28;103275;-81
2021/12/25 05:09:53;;;;;;;;;2.00;1.00;;;;;16.73;49.77;97616.44;4858086;28;104037;-82
2021/12/25 05:12:20;;;;;;;;;1.00;0.50;;;;;16.72;49.35;97620.25;4861982;28;102432;-81
2021/12/25 05:14:47;;;;;;;;;1.75;1.00;;;;;16.72;48.78;97628.44;4871904;28;103574;-82
2021/12/25 05:17:14;;;;;;;;;0.25;0.25;;;;;16.71;49.47;97624.06;4869131;28;104089;-82
2021/12/25 05:19:41;;;;;;;;;0.00;0.00;;;;;16.70;49.00;97620.53;4855379;28;105241;-82
2021/12/25 05:22:09;;;;;;;;;0.75;0.75;;;;;16.71;49.72;97618.59;4873155;28;102838;-82
2021/12/25 05:24:36;;;;;;;;;1.75;1.00;;;;;16.69;48.80;97626.25;4871078;28;103682;-82
2021/12/25 05:27:05;;;;;;;;;0.00;0.00;;;;;16.70;49.72;97619.72;4865708;28;102513;-81
2021/12/25 05:29:34;;;;;;;;;1.75;1.00;;;;;16.68;48.89;97630.88;4868906;28;104414;-82
2021/12/25 05:32:01;;;;;;;;;1.50;1.00;;;;;16.69;49.48;97628.97;4868681;28;102978;-81
2021/12/25 05:34:28;;;;;;;;;1.00;1.00;;;;;16.70;49.07;97633.34;4872939;28;103049;-82
2021/12/25 05:36:56;;;;;;;;;0.00;0.00;;;;;16.69;48.96;97628.97;4851548;28;103402;-82
2021/12/25 05:39:22;;;;;;;;;0.00;0.00;;;;;16.69;48.98;97638.00;4870472;28;103992;-81
2021/12/25 05:41:50;;;;;;;;;1.00;1.00;;;;;16.68;49.36;97646.44;4870029;28;104397;-81
2021/12/25 05:44:17;;;;;;;;;0.75;0.50;;;;;16.67;48.79;97645.59;4878223;28;102889;-82
2021/12/25 05:46:45;;;;;;;;;1.00;1.00;;;;;16.68;49.58;97655.44;4864045;28;102586;-82
2021/12/25 05:49:12;;;;;;;;;1.00;1.00;;;;;16.67;48.91;97644.78;4868309;28;104072;-81
2021/12/25 05:51:40;;;;;;;;;1.00;1.00;;;;;16.67;49.63;97650.25;4868086;28;102331;-82
2021/12/25 05:54:07;;;;;;;;;1.00;0.00;;;;;16.65;49.21;97653.25;4872280;28;102686;-82
2021/12/25 05:56:35;;;;;;;;;0.00;0.00;;;;;16.64;49.21;97657.06;4869256;28;102840;-82
2021/12/25 05:59:02;;;;;;;;;0.75;0.00;;;;;16.63;49.32;97663.59;4864812;28;104219;-81
2021/12/25 06:01:29;;;;;;;;;1.00;1.00;;;;;16.63;48.91;97671.78;4874177;28;102610;-82
2021/12/25 06:03:56;;;;;;;;;0.00;0.00;;;;;16.62;49.42;97675.59;4870649;28;102881;-81
2021/12/25 06:06:24;;;;;;;;;0.50;0.50;;;;;16.62;48.70;97678.31;4858663;28;102922;-82
2021/12/25 06:08:52;;;;;;;;;1.00;0.00;;;;;16.62;48.81;97683.78;4869842;28;104049;-80
2021/12/25 06:11:19;;;;;;;;;0.50;0.50;;;;;16.61;48.84;97679.44;4874541;28;102622;-82
2021/12/25 06:13:56;;;;;;;;;0.00;0.00;;;;;16.60;49.14;97688.69;4881203;28;103349;-82
2021/12/25 06:16:23;;;;;;;;;1.50;1.00;;;;;16.60;48.87;97688.69;4868506;28;102731;-81
2021/12/25 06:18:50;;;;;;;;;1.00;1.00;;;;;16.60;49.61;97698.78;4865897;28;104363;-81
2021/12/25 06:21:17;;;;;;;;;0.00;0.00;;;;;16.61;49.00;97705.91;4873082;28;102500;-82
2021/12/25 06:23:44;;;;;;;;;0.00;0.00;;;;;16.60;48.78;97702.34;4879893;28;102411;-82
2021/12/25 06:26:32;;;;;;;;;1.00;1.00;;;;;16.59;49.36;97687.03;4868216;28;102697;-81
2021/12/25 06:28:59;;;;;;;;;0.25;0.25;;;;;16.58;48.64;97693.56;4869116;28;104231;-81
2021/12/25 06:31:26;;;;;;;;;1.00;1.00;;;;;16.57;49.39;97705.53;4871636;28;102810;-82
2021/12/25 06:33:53;;;;;;;;;0.25;0.25;;;;;16.57;49.09;97702.81;4862819;28;103008;-81
2021/12/25 06:36:58;;;;;;;;;0.50;0.00;;;;;16.56;49.35;97693.00;4882349;28;103792;-82
2021/12/25 06:39:25;;;;;;;;;0.00;0.00;;;;;16.55;49.36;97707.72;4874184;28;109674;-81
2021/12/25 06:41:52;;;;;;;;;1.00;1.00;;;;;16.55;48.97;97720.53;4879243;28;102418;-80
2021/12/25 06:44:20;;;;;;;;;1.00;1.00;;;;;16.55;49.01;97729.56;4880838;28;102562;-82
2021/12/25 06:46:47;;;;;;;;;0.50;0.25;;;;;16.53;48.45;97724.34;4868142;28;103461;-81
2021/12/25 06:49:14;;;;;;;;;0.75;0.75;;;;;16.51;49.03;97720.25;4875884;28;107312;-82
2021/12/25 06:51:41;;;;;;;;;0.00;0.00;;;;;16.52;48.49;97724.63;4875325;28;102494;-81
2021/12/25 06:54:08;;;;;;;;;0.00;0.00;;;;;16.49;48.84;97720.50;4875482;28;102663;-81
2021/12/25 06:56:35;;;;;;;;;1.00;0.00;;;;;16.50;49.21;97726.78;4877478;28;102962;-82
2021/12/25 06:59:02;;;;;;;;;1.00;0.75;;;;;16.50;49.10;97733.06;4875360;28;104243;-82
2021/12/25 07:01:29;;;;;;;;;1.00;0.00;;;;;16.50;48.68;97733.06;4878559;28;102608;-82
2021/12/25 07:03:57;;;;;;;;;0.50;0.50;;;;;16.50;49.06;97748.63;4874425;28;102403;-82
2021/12/25 07:06:24;;;;;;;;;1.00;1.00;;;;;16.50;49.28;97737.69;4877681;28;102541;-82
2021/12/25 07:08:51;;;;;;;;;1.00;0.00;;;;;16.49;48.50;97742.34;4877757;28;104051;-81
2021/12/25 07:11:20;;;;;;;;;0.00;0.00;;;;;16.48;48.84;97750.78;4878798;28;102379;-82
2021/12/25 07:13:48;;;;;;;;;0.00;0.00;;;;;16.45;49.02;97754.03;4873620;28;102812;-81
2021/12/25 07:16:15;;;;;;;;;0.75;0.75;;;;;16.48;48.99;97761.69;4858351;28;103592;-81
2021/12/25 07:18:42;;;;;;;;;0.00;0.00;;;;;16.45;49.20;97752.13;4873385;28;104282;-82
2021/12/25 07:21:09;;;;;;;;;0.00;0.00;;;;;16.47;48.21;97765.53;4873223;28;102375;-82
2021/12/25 07:23:36;;;;;;;;;0.75;0.25;;;;;16.45;48.00;97759.47;4876845;28;102505;-81
2021/12/25 07:26:04;;;;;;;;;1.00;0.00;;;;;16.44;48.62;97761.38;4860555;28;102509;-82
2021/12/25 07:28:31;;;;;;;;;0.75;0.00;;;;;16.43;48.75;97758.94;4871457;28;104108;-82
2021/12/25 07:31:00;;;;;;;;;0.00;0.00;;;;;16.42;49.03;97766.28;4879426;28;103244;-81
2021/12/25 07:33:28;;;;;;;;;0.00;0.00;;;;;16.42;48.45;97773.66;4875840;28;102574;-81
2021/12/25 07:35:55;;;;;;;;;0.00;0.00;;;;;16.42;48.56;97779.09;4867596;28;103769;-81
2021/12/25 07:38:23;;;;;;;;;2.00;0.25;;;;;16.41;48.43;97772.00;4878590;28;104027;-80
2021/12/25 07:40:50;;;;;;;;;1.00;0.00;;;;;16.40;48.49;97782.09;4878219;28;102441;-81
2021/12/25 07:43:19;;;;;;;;;1.00;1.00;;;;;16.40;48.92;97776.63;4870031;28;102810;-82
2021/12/25 07:45:48;;;;;;;;;1.00;0.00;;;;;16.42;49.36;97800.94;4875507;28;102570;-82
2021/12/25 07:48:18;;;;;;;;;0.00;0.00;;;;;16.42;48.85;97800.94;4872610;28;104219;-82
2021/12/25 07:50:45;;;;;;;;;1.00;0.00;;;;;16.41;48.75;97808.31;4852600;28;102482;-82
2021/12/25 07:53:12;;;;;;;;;0.25;0.25;;;;;16.42;48.71;97800.94;4868920;28;102488;-82
2021/12/25 07:55:39;;;;;;;;;0.00;0.00;;;;;16.41;48.25;97793.81;4876143;28;102664;-82
2021/12/25 07:58:09;;;;;;;;;1.00;1.00;;;;;16.40;48.40;97798.47;4874353;28;104109;-82
2021/12/25 08:00:36;;;;;;;;;0.00;0.00;;;;;16.40;48.35;97797.63;4873229;28;102816;-82
2021/12/25 08:03:03;;;;;;;;;1.00;1.00;;;;;16.40;48.60;97798.47;4873389;28;102446;-81
2021/12/25 08:05:31;;;;;;;;;0.00;0.00;;;;;16.38;47.99;97799.81;4855225;28;102477;-82
2021/12/25 08:07:58;;;;;;;;;0.00;0.00;;;;;16.38;48.15;97799.81;4875044;28;105413;-82
2021/12/25 08:10:25;;;;;;;;;0.00;0.00;;;;;16.35;48.55;97805.75;4862963;28;102218;-81
2021/12/25 08:12:56;;;;;;;;;0.50;0.50;;;;;16.30;47.78;97803.00;4877250;28;102299;-82
2021/12/25 08:15:27;;;;;;;;;0.50;0.50;;;;;16.22;48.49;97804.28;4873581;28;102813;-81
2021/12/25 08:17:56;;;;;;;;;1.00;1.00;;;;;16.19;48.24;97812.16;4873991;28;109038;-81
2021/12/25 08:20:23;;;;;;;;;0.00;0.00;;;;;16.10;48.62;97809.06;4877968;28;102381;-81
2021/12/25 08:22:50;;;;;;;;;1.00;1.00;;;;;16.03;49.14;97814.69;4872636;28;103796;-82
2021/12/25 08:25:18;;;;;;;;;1.00;0.25;;;;;15.99;48.77;97812.72;4873130;28;103139;-82
2021/12/25 08:27:45;;;;;;;;;1.00;0.75;;;;;15.97;49.02;97828.53;4877602;28;104132;-83
2021/12/25 08:30:15;;;;;;;;;1.00;1.00;;;;;15.96;49.46;97844.06;4873050;28;102206;-83
2021/12/25 08:32:42;;;;;;;;;1.00;1.00;;;;;15.93;49.49;97841.88;4875728;28;102232;-82
2021/12/25 08:35:10;;;;;;;;;1.00;1.00;;;;;15.90;49.75;97847.81;4873389;28;103568;-83
2021/12/25 08:37:37;;;;;;;;;1.50;1.00;;;;;15.89;49.34;97843.44;4873681;28;104270;-82
2021/12/25 08:40:05;;;;;;;;;0.50;0.50;;;;;15.85;49.40;97841.47;4878887;28;102403;-82
2021/12/25 08:42:32;;;;;;;;;2.00;1.00;;;;;15.82;49.79;97853.69;4872612;28;102471;-81
2021/12/25 08:47:28;;;;;;;;;1.25;1.00;;;;;15.77;49.25;97831.81;4873187;28;104251;-81
2021/12/25 08:49:55;;;;;;;;;1.00;1.00;;;;;15.75;49.98;97850.34;4870630;28;103570;-81
2021/12/25 08:52:23;;;;;;;;;1.00;1.00;;;;;15.72;50.15;97850.84;4881523;28;102905;-79
2021/12/25 08:54:51;;;;;;;;;1.00;1.00;;;;;15.70;49.75;97855.72;4866225;28;102250;-82
2021/12/25 08:57:23;;;;;;;;;2.00;1.00;;;;;15.69;49.95;97851.34;4863954;28;109062;-79
2021/12/25 08:59:52;;;;;;;;;1.50;1.00;;;;;15.67;49.90;97858.94;4868979;28;102398;-81
2021/12/25 09:02:19;;;;;;;;;1.00;1.00;;;;;15.63;50.30;97855.91;4870406;28;111053;-81
2021/12/25 09:04:47;;;;;;;;;0.00;0.00;;;;;15.63;49.79;97842.28;4856824;28;102640;-81
2021/12/25 09:07:18;;;;;;;;;1.00;1.00;;;;;15.61;50.25;97844.44;4871901;28;104234;-81
2021/12/25 09:09:44;;;;;;;;;2.00;1.00;;;;;15.60;50.20;97852.84;4869137;28;103034;-81
2021/12/25 09:12:14;;;;;;;;;1.25;1.00;;;;;15.57;49.94;97850.66;4880205;28;102976;-82
2021/12/25 09:14:42;;;;;;;;;2.00;1.00;;;;;15.54;50.48;97865.56;4871043;28;103671;-81
2021/12/25 09:17:09;;;;;;;;;1.00;0.00;;;;;15.54;50.61;97868.31;4873786;28;104158;-81
2021/12/25 09:19:36;;;;;;;;;2.00;1.00;;;;;15.52;50.29;97870.47;4870694;28;102743;-82
2021/12/25 09:22:03;;;;;;;;;1.50;1.00;;;;;15.50;50.03;97872.59;4867793;28;102704;-81
2021/12/25 09:24:30;;;;;;;;;1.50;1.00;;;;;15.51;50.14;97876.16;4871004;28;102380;-81
2021/12/25 09:26:58;;;;;;;;;1.00;1.00;;;;;15.48;50.11;97872.00;4880146;28;104234;-81
2021/12/25 09:29:25;;;;;;;;;2.00;1.75;;;;;15.47;50.46;97867.63;4870863;28;103887;-81
2021/12/25 09:31:52;;;;;;;;;2.25;1.50;;;;;15.46;50.45;97873.31;4871300;28;103957;-82
2021/12/25 09:34:19;;;;;;;;;1.00;1.00;;;;;15.44;49.91;97870.88;4881080;28;102555;-83
2021/12/25 09:36:46;;;;;;;;;1.25;1.00;;;;;15.41;50.81;97871.34;4869529;28;104566;-82
2021/12/25 09:39:13;;;;;;;;;2.25;1.00;;;;;15.40;50.19;97868.91;4878702;28;102602;-83
2021/12/25 09:41:40;;;;;;;;;2.00;1.00;;;;;15.39;50.50;97873.50;4874414;28;102555;-81
2021/12/25 09:44:07;;;;;;;;;1.25;1.00;;;;;15.35;50.48;97864.19;4872049;28;103819;-82
2021/12/25 09:46:35;;;;;;;;;3.75;1.75;;;;;15.33;50.48;97860.06;4880088;28;104176;-81
2021/12/25 09:49:04;;;;;;;;;1.00;1.00;;;;;15.33;50.41;97870.94;4878516;28;104073;-81
2021/12/25 09:51:31;;;;;;;;;1.50;0.75;;;;;15.29;50.60;97867.91;4870783;28;103921;-80
2021/12/25 09:54:09;;;;;;;;;1.00;1.00;;;;;15.27;50.44;97861.88;4876228;28;102744;-80
2021/12/25 09:56:38;;;;;;;;;1.00;1.00;;;;;15.28;50.26;97865.41;4862891;28;104269;-80
2021/12/25 09:59:06;;;;;;;;;2.00;1.25;;;;;15.24;50.35;97859.66;4876376;28;103879;-81
2021/12/25 10:01:46;;;;;;;;;1.00;0.75;;;;;15.22;50.48;97856.34;4878506;28;106400;-80
2021/12/25 10:04:35;;;;;;;;;1.50;1.25;;;;;15.20;50.52;97847.59;4879241;28;102689;-81
2021/12/25 10:07:15;;;;;;;;;0.00;0.00;;;;;15.20;50.67;97855.78;4876320;28;108818;-81
2021/12/25 10:09:43;;;;;;;;;1.00;0.00;;;;;15.19;50.33;97840.50;4875017;28;103667;-83
2021/12/25 10:12:14;;;;;;;;;1.00;1.00;;;;;15.18;50.22;97834.22;4850203;28;104091;-84
2021/12/25 10:14:42;;;;;;;;;1.00;1.00;;;;;15.17;50.23;97840.75;4883807;28;102660;-83
2021/12/25 10:17:12;;;;;;;;;2.50;1.75;;;;;15.17;50.55;97837.22;4877169;28;104194;-83
2021/12/25 10:19:41;;;;;;;;;1.00;1.00;;;;;15.16;50.21;97841.00;4875698;28;103750;-83
2021/12/25 10:22:10;;;;;;;;;1.00;1.00;;;;;15.15;50.55;97825.75;4878758;28;103352;-82
2021/12/25 10:25:02;;;;;;;;;2.50;2.00;;;;;15.13;50.39;97828.69;4877626;28;102619;-81
2021/12/25 10:27:28;;;;;;;;;1.50;1.00;;;;;15.12;50.91;97842.59;4869591;28;109040;-82
2021/12/25 10:29:59;;;;;;;;;2.00;2.00;;;;;15.11;50.38;97839.03;4873967;28;111527;-79
2021/12/25 10:32:26;;;;;;;;;1.00;1.00;;;;;15.10;50.30;97842.81;4874327;28;104028;-82
2021/12/25 10:34:54;;;;;;;;;1.00;1.00;;;;;15.07;50.75;97837.88;4873412;28;102263;-82
2021/12/25 10:37:22;;;;;;;;;3.00;2.00;;;;;15.08;50.72;97833.25;4873430;28;108856;-82
2021/12/25 10:39:49;;;;;;;;;2.00;2.00;;;;;15.05;50.78;97844.63;4870096;28;103055;-82
2021/12/25 10:42:21;;;;;;;;;2.50;1.75;;;;;15.05;50.81;97836.47;4866911;28;102647;-82
2021/12/25 10:44:51;;;;;;;;;1.75;1.00;;;;;15.03;50.46;97842.19;4869288;28;102309;-82
2021/12/25 10:47:20;;;;;;;;;1.00;1.00;;;;;15.03;50.41;97844.06;4868232;28;104123;-81
2021/12/25 10:49:52;;;;;;;;;1.00;1.00;;;;;15.00;50.53;97850.81;4871255;28;103261;-81
2021/12/25 10:52:29;;;;;;;;;1.00;1.00;;;;;14.98;50.89;97844.81;4871088;28;104309;-82
2021/12/25 10:54:58;;;;;;;;;1.00;1.00;;;;;14.96;50.37;97860.56;4874075;28;103152;-82
2021/12/25 10:57:41;;;;;;;;;2.00;1.00;;;;;14.96;51.11;97844.22;4871570;28;103964;-80
2021/12/25 11:00:08;;;;;;;;;2.75;2.00;;;;;14.96;51.32;97857.00;4875883;28;103368;-82
2021/12/25 11:03:05;;;;;;;;;1.00;1.00;;;;;14.94;51.04;97849.09;4875737;28;104118;-82
2021/12/25 11:05:43;;;;;;;;;1.00;1.00;;;;;14.94;50.67;97851.81;4871036;28;103280;-83
2021/12/25 11:08:24;;;;;;;;;2.00;2.00;;;;;14.93;50.29;97850.16;4852274;28;104285;-83
2021/12/25 11:11:03;;;;;;;;;1.00;1.00;;;;;14.91;50.97;97849.56;4877862;28;103603;-81
2021/12/25 11:14:02;;;;;;;;;2.50;1.00;;;;;14.90;51.13;97856.13;4871303;28;102849;-81
2021/12/25 11:16:35;;;;;;;;;1.50;1.00;;;;;14.88;51.50;97850.09;4868887;28;103506;-79
2021/12/25 11:19:10;;;;;;;;;1.00;1.00;;;;;14.83;51.25;97836.38;4876328;28;104121;-81
2021/12/25 11:21:56;;;;;;;;;2.00;2.00;;;;;14.82;51.49;97842.91;4859582;28;102462;-82
2021/12/25 11:24:24;;;;;;;;;2.50;2.00;;;;;14.81;51.56;97849.44;4871136;28;103718;-82
2021/12/25 11:26:59;;;;;;;;;1.00;1.00;;;;;14.81;51.42;97849.44;4868947;28;102617;-81
2021/12/25 11:29:29;;;;;;;;;2.00;2.00;;;;;14.79;51.35;97839.84;4854242;28;108830;-81
2021/12/25 11:31:56;;;;;;;;;2.00;1.00;;;;;14.77;51.85;97833.84;4870961;28;102672;-79
2021/12/25 11:34:24;;;;;;;;;1.25;1.00;;;;;14.77;51.50;97834.63;4875253;28;102570;-81
2021/12/25 11:36:54;;;;;;;;;1.00;1.00;;;;;14.76;51.82;97829.47;4874459;28;102854;-81
2021/12/25 11:39:23;;;;;;;;;2.00;2.00;;;;;14.74;51.86;97843.31;4865395;28;107920;-82
2021/12/25 11:41:54;;;;;;;;;1.00;1.00;;;;;14.73;51.47;97847.09;4870431;28;102499;-81
2021/12/25 11:44:31;;;;;;;;;1.00;0.00;;;;;14.70;51.67;97842.97;4861076;28;102589;-80
2021/12/25 11:46:59;;;;;;;;;1.00;1.00;;;;;14.67;52.30;97848.09;4859740;28;103846;-80
2021/12/25 11:49:26;;;;;;;;;2.00;1.00;;;;;14.65;52.11;97855.66;4873062;28;104227;-80
2021/12/25 11:51:53;;;;;;;;;1.00;1.00;;;;;14.64;52.50;97854.84;4872184;28;102736;-81
2021/12/25 11:59:49;;;;;;;;;1.25;1.00;;;;;14.63;52.07;97869.50;4869293;28;103210;-81
2021/12/25 12:02:54;;;;;;;;;1.25;1.00;;;;;14.62;51.60;97872.50;4883563;28;103913;-80
2021/12/25 12:05:29;;;;;;;;;1.00;1.00;;;;;14.61;52.29;97866.22;4774594;29;102776;-81
2021/12/25 12:08:05;;;;;;;;;2.50;1.50;;;;;14.60;52.04;97870.00;4778971;29;102479;-80
2021/12/25 12:10:56;;;;;;;;;2.00;1.00;;;;;14.59;52.09;97865.63;4599370;28;110487;-82
2021/12/25 12:13:32;;;;;;;;;2.00;2.00;;;;;14.56;51.76;97862.56;4857869;28;102357;-81
2021/12/25 12:16:03;;;;;;;;;1.00;1.00;;;;;14.55;52.17;97869.91;4898157;28;102400;-81
2021/12/25 12:18:34;;;;;;;;;1.00;1.00;;;;;14.54;51.82;97868.28;4884530;28;104132;-81
2021/12/25 12:21:15;;;;;;;;;2.00;1.00;;;;;14.53;51.91;97866.63;4892067;28;104810;-81
2021/12/25 12:26:45;;;;;;;;;1.00;1.00;;;;;14.51;52.14;97870.63;4675932;28;102944;-82
2021/12/25 12:29:13;;;;;;;;;2.00;1.00;;;;;14.50;52.31;97863.56;4866504;28;102694;-81
2021/12/25 12:31:47;;;;;;;;;2.00;1.00;;;;;14.48;52.52;97871.13;4853460;28;104255;-81
2021/12/25 12:34:30;;;;;;;;;1.00;1.00;;;;;14.49;51.89;97879.06;4866872;28;102509;-81
2021/12/25 12:37:16;;;;;;;;;1.75;1.00;;;;;14.47;51.82;97883.06;4865903;28;102854;-81
2021/12/25 12:40:04;;;;;;;;;2.00;2.00;;;;;14.44;52.44;97891.72;4858511;28;106125;-81
2021/12/25 12:42:40;;;;;;;;;1.25;0.00;;;;;14.44;52.74;97883.56;4862720;28;106507;-81
2021/12/25 12:45:25;;;;;;;;;1.00;1.00;;;;;14.45;53.03;97885.22;4868044;28;102964;-81
2021/12/25 12:48:10;;;;;;;;;1.50;1.50;;;;;14.44;52.63;97892.56;4867384;28;102873;-81
2021/12/25 12:58:36;;;;;;;;;1.50;1.00;;;;;14.40;52.43;97904.16;4702161;23;102857;-78
2021/12/25 13:01:10;;;;;;;;;1.25;1.00;;;;;14.40;52.68;97904.16;4832783;28;102865;-79
2021/12/25 13:03:38;;;;;;;;;1.00;0.50;;;;;14.39;52.00;97921.56;4841974;28;103402;-79
2021/12/25 13:06:13;;;;;;;;;1.00;1.00;;;;;14.39;52.18;97922.38;4833788;28;102308;-79
2021/12/25 13:08:44;;;;;;;;;1.00;1.00;;;;;14.38;52.21;97920.72;4832443;28;102202;-79
2021/12/25 13:11:41;;;;;;;;;3.00;1.00;;;;;14.36;52.30;97924.75;4826594;28;103692;-79
2021/12/25 13:14:05;;;;;;;;;2.25;1.75;;;;;14.37;52.31;97923.66;4835651;28;103525;-78
2021/12/25 13:16:39;;;;;;;;;4.00;2.00;;;;;14.36;52.62;97922.88;4837240;28;102204;-79